sensor_id;sensor_type;location;lat;lon;timestamp;P1;durP1;ratioP1;P2;durP2;ratioP2
77417;SDS011;66490;51.484;0.026;2023-01-26T00:02:10;17.23;;;2.57;;
77417;SDS011;66490;51.484;0.026;2023-01-26T00:04:38;13.63;;;2.67;;
77417;SDS011;66490;51.484;0.026;2023-01-26T00:07:04;14.60;;;3.70;;
77417;SDS011;66490;51.484;0.026;2023-01-26T00:09:32;13.35;;;2.55;;
77417;SDS011;66490;51.484;0.026;2023-01-26T00:11:59;10.85;;;2.35;;
77417;SDS011;66490;51.484;0.026;2023-01-26T00:14:24;11.00;;;2.30;;
77417;SDS011;66490;51.484;0.026;2023-01-26T00:16:50;14.05;;;2.22;;
77417;SDS011;66490;51.484;0.026;2023-01-26T00:19:20;11.10;;;2.72;;
77417;SDS011;66490;51.484;0.026;2023-01-26T00:21:47;14.13;;;3.05;;
77417;SDS011;66490;51.484;0.026;2023-01-26T00:24:12;13.73;;;2.67;;
77417;SDS011;66490;51.484;0.026;2023-01-26T00:26:38;12.57;;;2.90;;
77417;SDS011;66490;51.484;0.026;2023-01-26T00:29:06;13.80;;;3.97;;
77417;SDS011;66490;51.484;0.026;2023-01-26T00:31:31;14.13;;;2.67;;
77417;SDS011;66490;51.484;0.026;2023-01-26T00:33:58;12.93;;;3.15;;
77417;SDS011;66490;51.484;0.026;2023-01-26T00:36:23;10.67;;;2.90;;
77417;SDS011;66490;51.484;0.026;2023-01-26T00:38:49;10.20;;;3.10;;
77417;SDS011;66490;51.484;0.026;2023-01-26T00:41:15;14.10;;;3.33;;
77417;SDS011;66490;51.484;0.026;2023-01-26T00:44:00;12.38;;;2.78;;
77417;SDS011;66490;51.484;0.026;2023-01-26T00:46:26;14.43;;;3.17;;
77417;SDS011;66490;51.484;0.026;2023-01-26T00:48:51;17.85;;;3.20;;
77417;SDS011;66490;51.484;0.026;2023-01-26T00:51:17;10.03;;;3.73;;
77417;SDS011;66490;51.484;0.026;2023-01-26T00:53:43;12.25;;;3.67;;
77417;SDS011;66490;51.484;0.026;2023-01-26T00:56:08;13.37;;;3.40;;
77417;SDS011;66490;51.484;0.026;2023-01-26T00:58:34;14.60;;;4.47;;
77417;SDS011;66490;51.484;0.026;2023-01-26T01:01:00;17.52;;;3.72;;
77417;SDS011;66490;51.484;0.026;2023-01-26T01:03:26;15.87;;;3.80;;
77417;SDS011;66490;51.484;0.026;2023-01-26T01:05:51;10.67;;;3.90;;
77417;SDS011;66490;51.484;0.026;2023-01-26T01:08:18;15.23;;;4.15;;
77417;SDS011;66490;51.484;0.026;2023-01-26T01:10:43;15.43;;;4.23;;
77417;SDS011;66490;51.484;0.026;2023-01-26T01:13:09;15.43;;;4.65;;
77417;SDS011;66490;51.484;0.026;2023-01-26T01:15:36;13.17;;;4.07;;
77417;SDS011;66490;51.484;0.026;2023-01-26T01:18:03;14.02;;;4.13;;
77417;SDS011;66490;51.484;0.026;2023-01-26T01:20:30;15.80;;;5.10;;
77417;SDS011;66490;51.484;0.026;2023-01-26T01:22:56;11.70;;;3.60;;
77417;SDS011;66490;51.484;0.026;2023-01-26T01:25:21;15.17;;;4.20;;
77417;SDS011;66490;51.484;0.026;2023-01-26T01:27:47;15.93;;;4.53;;
77417;SDS011;66490;51.484;0.026;2023-01-26T01:30:12;20.13;;;4.67;;
77417;SDS011;66490;51.484;0.026;2023-01-26T01:32:38;14.30;;;4.10;;
77417;SDS011;66490;51.484;0.026;2023-01-26T01:35:04;15.27;;;4.13;;
77417;SDS011;66490;51.484;0.026;2023-01-26T01:37:30;13.27;;;4.35;;
77417;SDS011;66490;51.484;0.026;2023-01-26T01:39:57;13.50;;;5.38;;
77417;SDS011;66490;51.484;0.026;2023-01-26T01:42:24;15.48;;;3.97;;
77417;SDS011;66490;51.484;0.026;2023-01-26T01:47:53;14.17;;;4.63;;
77417;SDS011;66490;51.484;0.026;2023-01-26T01:50:21;14.60;;;4.40;;
77417;SDS011;66490;51.484;0.026;2023-01-26T01:52:48;18.65;;;5.22;;
77417;SDS011;66490;51.484;0.026;2023-01-26T01:55:14;13.52;;;4.43;;
77417;SDS011;66490;51.484;0.026;2023-01-26T01:57:46;15.00;;;4.45;;
77417;SDS011;66490;51.484;0.026;2023-01-26T02:00:19;20.90;;;5.10;;
77417;SDS011;66490;51.484;0.026;2023-01-26T02:02:51;17.77;;;6.38;;
77417;SDS011;66490;51.484;0.026;2023-01-26T02:11:51;15.93;;;5.10;;
77417;SDS011;66490;51.484;0.026;2023-01-26T02:14:04;18.83;;;6.70;;
77417;SDS011;66490;51.484;0.026;2023-01-26T02:16:33;18.38;;;5.47;;
77417;SDS011;66490;51.484;0.026;2023-01-26T02:19:03;19.38;;;6.78;;
77417;SDS011;66490;51.484;0.026;2023-01-26T02:21:29;17.30;;;6.20;;
77417;SDS011;66490;51.484;0.026;2023-01-26T02:24:06;19.83;;;6.77;;
77417;SDS011;66490;51.484;0.026;2023-01-26T02:26:46;22.60;;;7.40;;
77417;SDS011;66490;51.484;0.026;2023-01-26T02:29:12;16.52;;;6.38;;
77417;SDS011;66490;51.484;0.026;2023-01-26T02:31:38;22.10;;;7.03;;
77417;SDS011;66490;51.484;0.026;2023-01-26T02:34:07;21.98;;;6.35;;
77417;SDS011;66490;51.484;0.026;2023-01-26T02:36:33;17.75;;;6.90;;
77417;SDS011;66490;51.484;0.026;2023-01-26T02:41:27;21.25;;;6.70;;
77417;SDS011;66490;51.484;0.026;2023-01-26T02:44:11;17.40;;;6.68;;
77417;SDS011;66490;51.484;0.026;2023-01-26T02:46:38;20.40;;;7.40;;
77417;SDS011;66490;51.484;0.026;2023-01-26T02:49:04;20.53;;;6.27;;
77417;SDS011;66490;51.484;0.026;2023-01-26T02:51:48;19.65;;;6.80;;
77417;SDS011;66490;51.484;0.026;2023-01-26T02:54:14;23.10;;;7.20;;
77417;SDS011;66490;51.484;0.026;2023-01-26T02:57:01;18.70;;;6.57;;
77417;SDS011;66490;51.484;0.026;2023-01-26T02:59:27;19.60;;;6.60;;
77417;SDS011;66490;51.484;0.026;2023-01-26T03:01:52;21.57;;;7.77;;
77417;SDS011;66490;51.484;0.026;2023-01-26T03:04:20;19.80;;;6.47;;
77417;SDS011;66490;51.484;0.026;2023-01-26T03:06:45;18.57;;;6.27;;
77417;SDS011;66490;51.484;0.026;2023-01-26T03:09:12;15.05;;;6.43;;
77417;SDS011;66490;51.484;0.026;2023-01-26T03:11:38;21.07;;;7.67;;
77417;SDS011;66490;51.484;0.026;2023-01-26T03:14:11;15.23;;;6.93;;
77417;SDS011;66490;51.484;0.026;2023-01-26T03:16:38;19.05;;;6.75;;
77417;SDS011;66490;51.484;0.026;2023-01-26T03:19:04;15.15;;;7.07;;
77417;SDS011;66490;51.484;0.026;2023-01-26T03:21:49;19.40;;;7.17;;
77417;SDS011;66490;51.484;0.026;2023-01-26T03:24:33;16.65;;;6.90;;
77417;SDS011;66490;51.484;0.026;2023-01-26T03:27:17;15.93;;;6.07;;
77417;SDS011;66490;51.484;0.026;2023-01-26T03:29:56;19.15;;;6.70;;
77417;SDS011;66490;51.484;0.026;2023-01-26T03:32:22;20.27;;;7.03;;
77417;SDS011;66490;51.484;0.026;2023-01-26T03:34:48;21.77;;;5.83;;
77417;SDS011;66490;51.484;0.026;2023-01-26T03:37:14;17.52;;;6.90;;
77417;SDS011;66490;51.484;0.026;2023-01-26T03:39:39;18.17;;;6.33;;
77417;SDS011;66490;51.484;0.026;2023-01-26T03:42:23;17.67;;;7.15;;
77417;SDS011;66490;51.484;0.026;2023-01-26T03:45:08;15.30;;;5.57;;
77417;SDS011;66490;51.484;0.026;2023-01-26T03:47:53;13.32;;;6.22;;
77417;SDS011;66490;51.484;0.026;2023-01-26T03:50:46;17.52;;;5.03;;
77417;SDS011;66490;51.484;0.026;2023-01-26T03:53:31;21.08;;;5.63;;
77417;SDS011;66490;51.484;0.026;2023-01-26T03:56:15;22.15;;;6.38;;
77417;SDS011;66490;51.484;0.026;2023-01-26T03:58:51;12.40;;;4.50;;
77417;SDS011;66490;51.484;0.026;2023-01-26T04:01:19;18.65;;;5.18;;
77417;SDS011;66490;51.484;0.026;2023-01-26T04:03:52;14.35;;;5.80;;
77417;SDS011;66490;51.484;0.026;2023-01-26T04:06:39;15.68;;;4.70;;
77417;SDS011;66490;51.484;0.026;2023-01-26T04:09:28;15.50;;;5.68;;
77417;SDS011;66490;51.484;0.026;2023-01-26T04:11:54;19.03;;;4.90;;
77417;SDS011;66490;51.484;0.026;2023-01-26T04:14:21;18.13;;;5.25;;
77417;SDS011;66490;51.484;0.026;2023-01-26T04:17:05;15.35;;;4.13;;
77417;SDS011;66490;51.484;0.026;2023-01-26T04:19:49;18.85;;;4.65;;
77417;SDS011;66490;51.484;0.026;2023-01-26T04:22:35;19.13;;;5.43;;
77417;SDS011;66490;51.484;0.026;2023-01-26T04:25:09;10.27;;;4.60;;
77417;SDS011;66490;51.484;0.026;2023-01-26T04:27:42;20.42;;;4.45;;
77417;SDS011;66490;51.484;0.026;2023-01-26T04:30:09;17.73;;;4.72;;
77417;SDS011;66490;51.484;0.026;2023-01-26T04:32:36;18.30;;;5.10;;
77417;SDS011;66490;51.484;0.026;2023-01-26T04:35:06;16.03;;;4.63;;
77417;SDS011;66490;51.484;0.026;2023-01-26T04:37:34;16.50;;;4.78;;
77417;SDS011;66490;51.484;0.026;2023-01-26T04:39:59;15.73;;;3.97;;
77417;SDS011;66490;51.484;0.026;2023-01-26T04:42:25;15.70;;;4.13;;
77417;SDS011;66490;51.484;0.026;2023-01-26T04:44:51;20.60;;;4.23;;
77417;SDS011;66490;51.484;0.026;2023-01-26T04:47:17;16.48;;;4.10;;
77417;SDS011;66490;51.484;0.026;2023-01-26T04:49:43;18.23;;;4.38;;
77417;SDS011;66490;51.484;0.026;2023-01-26T04:52:09;18.08;;;4.00;;
77417;SDS011;66490;51.484;0.026;2023-01-26T04:54:35;12.93;;;4.47;;
77417;SDS011;66490;51.484;0.026;2023-01-26T04:57:00;16.45;;;3.35;;
77417;SDS011;66490;51.484;0.026;2023-01-26T04:59:26;11.00;;;3.63;;
77417;SDS011;66490;51.484;0.026;2023-01-26T05:01:52;14.73;;;4.35;;
77417;SDS011;66490;51.484;0.026;2023-01-26T05:04:17;20.10;;;4.40;;
77417;SDS011;66490;51.484;0.026;2023-01-26T05:06:43;13.57;;;3.92;;
77417;SDS011;66490;51.484;0.026;2023-01-26T05:09:09;14.83;;;3.93;;
77417;SDS011;66490;51.484;0.026;2023-01-26T05:11:35;13.02;;;3.30;;
77417;SDS011;66490;51.484;0.026;2023-01-26T05:14:00;14.27;;;2.83;;
77417;SDS011;66490;51.484;0.026;2023-01-26T05:16:27;11.03;;;3.43;;
77417;SDS011;66490;51.484;0.026;2023-01-26T05:18:53;16.55;;;3.53;;
77417;SDS011;66490;51.484;0.026;2023-01-26T05:21:19;16.67;;;3.80;;
77417;SDS011;66490;51.484;0.026;2023-01-26T05:23:44;14.23;;;3.13;;
77417;SDS011;66490;51.484;0.026;2023-01-26T05:26:10;13.97;;;3.47;;
77417;SDS011;66490;51.484;0.026;2023-01-26T05:28:36;18.25;;;3.03;;
77417;SDS011;66490;51.484;0.026;2023-01-26T05:31:01;19.33;;;3.47;;
77417;SDS011;66490;51.484;0.026;2023-01-26T05:33:28;13.75;;;3.95;;
77417;SDS011;66490;51.484;0.026;2023-01-26T05:35:54;20.25;;;3.95;;
77417;SDS011;66490;51.484;0.026;2023-01-26T05:38:19;16.77;;;3.30;;
77417;SDS011;66490;51.484;0.026;2023-01-26T05:40:45;14.73;;;3.83;;
77417;SDS011;66490;51.484;0.026;2023-01-26T05:43:11;16.17;;;3.70;;
77417;SDS011;66490;51.484;0.026;2023-01-26T05:45:38;16.98;;;3.47;;
77417;SDS011;66490;51.484;0.026;2023-01-26T05:48:04;10.80;;;4.15;;
77417;SDS011;66490;51.484;0.026;2023-01-26T05:50:30;15.40;;;2.90;;
77417;SDS011;66490;51.484;0.026;2023-01-26T05:52:56;17.90;;;4.07;;
77417;SDS011;66490;51.484;0.026;2023-01-26T05:55:22;15.27;;;3.63;;
77417;SDS011;66490;51.484;0.026;2023-01-26T05:57:48;19.13;;;4.40;;
77417;SDS011;66490;51.484;0.026;2023-01-26T06:00:14;17.20;;;3.78;;
77417;SDS011;66490;51.484;0.026;2023-01-26T06:02:40;12.73;;;3.77;;
77417;SDS011;66490;51.484;0.026;2023-01-26T06:05:06;20.35;;;3.60;;
77417;SDS011;66490;51.484;0.026;2023-01-26T06:07:33;16.67;;;5.00;;
77417;SDS011;66490;51.484;0.026;2023-01-26T06:09:58;20.53;;;3.67;;
77417;SDS011;66490;51.484;0.026;2023-01-26T06:12:24;21.05;;;4.10;;
77417;SDS011;66490;51.484;0.026;2023-01-26T06:14:49;18.13;;;3.73;;
77417;SDS011;66490;51.484;0.026;2023-01-26T06:17:18;16.63;;;3.57;;
77417;SDS011;66490;51.484;0.026;2023-01-26T06:19:43;17.73;;;3.30;;
77417;SDS011;66490;51.484;0.026;2023-01-26T06:22:09;16.92;;;3.55;;
77417;SDS011;66490;51.484;0.026;2023-01-26T06:24:38;21.30;;;3.80;;
77417;SDS011;66490;51.484;0.026;2023-01-26T06:27:03;16.95;;;3.22;;
77417;SDS011;66490;51.484;0.026;2023-01-26T06:29:32;15.67;;;4.27;;
77417;SDS011;66490;51.484;0.026;2023-01-26T06:32:01;16.05;;;3.70;;
77417;SDS011;66490;51.484;0.026;2023-01-26T06:34:28;13.90;;;3.50;;
77417;SDS011;66490;51.484;0.026;2023-01-26T06:36:53;20.57;;;3.90;;
77417;SDS011;66490;51.484;0.026;2023-01-26T06:39:19;15.77;;;4.33;;
77417;SDS011;66490;51.484;0.026;2023-01-26T06:41:44;16.95;;;3.38;;
77417;SDS011;66490;51.484;0.026;2023-01-26T06:44:10;14.43;;;3.13;;
77417;SDS011;66490;51.484;0.026;2023-01-26T06:46:36;20.97;;;3.27;;
77417;SDS011;66490;51.484;0.026;2023-01-26T06:49:05;16.90;;;2.90;;
77417;SDS011;66490;51.484;0.026;2023-01-26T06:51:43;14.35;;;2.67;;
77417;SDS011;66490;51.484;0.026;2023-01-26T06:54:12;22.23;;;3.75;;
77417;SDS011;66490;51.484;0.026;2023-01-26T06:56:39;19.10;;;4.25;;
77417;SDS011;66490;51.484;0.026;2023-01-26T06:59:05;16.43;;;3.67;;
77417;SDS011;66490;51.484;0.026;2023-01-26T07:01:38;14.13;;;3.72;;
77417;SDS011;66490;51.484;0.026;2023-01-26T07:04:06;14.68;;;3.30;;
77417;SDS011;66490;51.484;0.026;2023-01-26T07:06:32;12.32;;;4.25;;
77417;SDS011;66490;51.484;0.026;2023-01-26T07:08:58;22.43;;;4.53;;
77417;SDS011;66490;51.484;0.026;2023-01-26T07:11:24;18.70;;;3.67;;
77417;SDS011;66490;51.484;0.026;2023-01-26T07:13:50;12.85;;;3.92;;
77417;SDS011;66490;51.484;0.026;2023-01-26T07:16:16;16.37;;;4.07;;
77417;SDS011;66490;51.484;0.026;2023-01-26T07:18:42;12.95;;;4.25;;
77417;SDS011;66490;51.484;0.026;2023-01-26T07:21:12;14.40;;;4.77;;
77417;SDS011;66490;51.484;0.026;2023-01-26T07:23:39;14.80;;;4.15;;
77417;SDS011;66490;51.484;0.026;2023-01-26T07:26:05;17.67;;;5.43;;
77417;SDS011;66490;51.484;0.026;2023-01-26T07:28:32;14.70;;;3.38;;
77417;SDS011;66490;51.484;0.026;2023-01-26T07:31:01;20.20;;;4.75;;
77417;SDS011;66490;51.484;0.026;2023-01-26T07:33:28;13.50;;;3.67;;
77417;SDS011;66490;51.484;0.026;2023-01-26T07:35:54;16.47;;;4.43;;
77417;SDS011;66490;51.484;0.026;2023-01-26T07:38:20;20.75;;;3.47;;
77417;SDS011;66490;51.484;0.026;2023-01-26T07:40:46;16.70;;;3.47;;
77417;SDS011;66490;51.484;0.026;2023-01-26T07:43:12;14.70;;;4.03;;
77417;SDS011;66490;51.484;0.026;2023-01-26T07:45:39;11.63;;;2.90;;
77417;SDS011;66490;51.484;0.026;2023-01-26T07:48:10;14.88;;;3.60;;
77417;SDS011;66490;51.484;0.026;2023-01-26T07:50:39;20.23;;;4.10;;
77417;SDS011;66490;51.484;0.026;2023-01-26T07:53:06;19.07;;;3.37;;
77417;SDS011;66490;51.484;0.026;2023-01-26T07:55:33;19.45;;;3.22;;
77417;SDS011;66490;51.484;0.026;2023-01-26T07:58:00;20.20;;;4.15;;
77417;SDS011;66490;51.484;0.026;2023-01-26T08:00:26;14.60;;;3.80;;
77417;SDS011;66490;51.484;0.026;2023-01-26T08:02:51;21.98;;;5.13;;
77417;SDS011;66490;51.484;0.026;2023-01-26T08:05:17;15.20;;;2.93;;
77417;SDS011;66490;51.484;0.026;2023-01-26T08:07:43;16.02;;;4.10;;
77417;SDS011;66490;51.484;0.026;2023-01-26T08:10:08;11.97;;;3.33;;
77417;SDS011;66490;51.484;0.026;2023-01-26T08:12:35;11.07;;;3.78;;
77417;SDS011;66490;51.484;0.026;2023-01-26T08:15:01;18.58;;;3.90;;
77417;SDS011;66490;51.484;0.026;2023-01-26T08:17:30;15.50;;;3.63;;
77417;SDS011;66490;51.484;0.026;2023-01-26T08:19:58;18.40;;;3.58;;
77417;SDS011;66490;51.484;0.026;2023-01-26T08:22:24;9.60;;;3.17;;
77417;SDS011;66490;51.484;0.026;2023-01-26T08:24:50;18.20;;;3.95;;
77417;SDS011;66490;51.484;0.026;2023-01-26T08:27:15;20.90;;;4.30;;
77417;SDS011;66490;51.484;0.026;2023-01-26T08:29:41;13.70;;;4.05;;
77417;SDS011;66490;51.484;0.026;2023-01-26T08:32:07;15.77;;;5.17;;
77417;SDS011;66490;51.484;0.026;2023-01-26T08:34:34;19.85;;;5.05;;
77417;SDS011;66490;51.484;0.026;2023-01-26T08:36:59;17.93;;;4.17;;
77417;SDS011;66490;51.484;0.026;2023-01-26T08:39:26;15.90;;;3.90;;
77417;SDS011;66490;51.484;0.026;2023-01-26T08:41:52;16.88;;;4.45;;
77417;SDS011;66490;51.484;0.026;2023-01-26T08:44:18;17.85;;;5.00;;
77417;SDS011;66490;51.484;0.026;2023-01-26T08:46:44;13.33;;;5.00;;
77417;SDS011;66490;51.484;0.026;2023-01-26T08:49:09;17.33;;;4.57;;
77417;SDS011;66490;51.484;0.026;2023-01-26T08:51:35;17.15;;;4.55;;
77417;SDS011;66490;51.484;0.026;2023-01-26T08:54:04;13.50;;;4.82;;
77417;SDS011;66490;51.484;0.026;2023-01-26T08:56:32;11.27;;;3.60;;
77417;SDS011;66490;51.484;0.026;2023-01-26T08:58:58;14.32;;;3.85;;
77417;SDS011;66490;51.484;0.026;2023-01-26T09:01:23;15.30;;;3.97;;
77417;SDS011;66490;51.484;0.026;2023-01-26T09:03:50;16.60;;;4.67;;
77417;SDS011;66490;51.484;0.026;2023-01-26T09:06:17;14.10;;;4.65;;
77417;SDS011;66490;51.484;0.026;2023-01-26T09:08:42;16.13;;;4.68;;
77417;SDS011;66490;51.484;0.026;2023-01-26T09:11:08;13.80;;;4.30;;
77417;SDS011;66490;51.484;0.026;2023-01-26T09:13:34;16.60;;;4.32;;
77417;SDS011;66490;51.484;0.026;2023-01-26T09:16:11;13.37;;;4.10;;
77417;SDS011;66490;51.484;0.026;2023-01-26T09:18:42;16.55;;;4.90;;
77417;SDS011;66490;51.484;0.026;2023-01-26T09:21:08;11.80;;;4.70;;
77417;SDS011;66490;51.484;0.026;2023-01-26T09:23:34;16.55;;;4.28;;
77417;SDS011;66490;51.484;0.026;2023-01-26T09:26:00;18.83;;;5.85;;
77417;SDS011;66490;51.484;0.026;2023-01-26T09:28:27;16.60;;;5.43;;
77417;SDS011;66490;51.484;0.026;2023-01-26T09:30:52;16.07;;;6.67;;
77417;SDS011;66490;51.484;0.026;2023-01-26T09:33:18;19.17;;;5.90;;
77417;SDS011;66490;51.484;0.026;2023-01-26T09:35:45;21.13;;;6.38;;
77417;SDS011;66490;51.484;0.026;2023-01-26T09:38:12;18.80;;;6.73;;
77417;SDS011;66490;51.484;0.026;2023-01-26T09:40:52;22.60;;;6.97;;
77417;SDS011;66490;51.484;0.026;2023-01-26T09:43:30;17.63;;;7.20;;
77417;SDS011;66490;51.484;0.026;2023-01-26T09:46:03;20.03;;;6.33;;
77417;SDS011;66490;51.484;0.026;2023-01-26T09:51:11;24.73;;;9.20;;
77417;SDS011;66490;51.484;0.026;2023-01-26T09:56:19;17.88;;;7.05;;
77417;SDS011;66490;51.484;0.026;2023-01-26T09:58:58;12.07;;;6.67;;
77417;SDS011;66490;51.484;0.026;2023-01-26T10:04:19;20.00;;;7.93;;
77417;SDS011;66490;51.484;0.026;2023-01-26T10:07:00;20.90;;;7.90;;
77417;SDS011;66490;51.484;0.026;2023-01-26T10:09:29;19.25;;;7.65;;
77417;SDS011;66490;51.484;0.026;2023-01-26T10:12:14;20.05;;;8.75;;
77417;SDS011;66490;51.484;0.026;2023-01-26T10:14:58;17.02;;;8.25;;
77417;SDS011;66490;51.484;0.026;2023-01-26T10:17:46;18.23;;;7.33;;
77417;SDS011;66490;51.484;0.026;2023-01-26T10:22:51;22.05;;;7.22;;
77417;SDS011;66490;51.484;0.026;2023-01-26T10:27:58;15.82;;;7.63;;
77417;SDS011;66490;51.484;0.026;2023-01-26T10:30:24;19.97;;;8.20;;
77417;SDS011;66490;51.484;0.026;2023-01-26T10:32:50;21.55;;;8.88;;
77417;SDS011;66490;51.484;0.026;2023-01-26T10:35:18;18.45;;;9.32;;
77417;SDS011;66490;51.484;0.026;2023-01-26T10:37:48;19.63;;;8.97;;
77417;SDS011;66490;51.484;0.026;2023-01-26T10:40:17;22.02;;;9.77;;
77417;SDS011;66490;51.484;0.026;2023-01-26T10:42:52;26.27;;;10.27;;
77417;SDS011;66490;51.484;0.026;2023-01-26T10:45:25;20.77;;;9.82;;
77417;SDS011;66490;51.484;0.026;2023-01-26T10:48:05;40.60;;;10.77;;
77417;SDS011;66490;51.484;0.026;2023-01-26T10:50:37;32.80;;;11.17;;
77417;SDS011;66490;51.484;0.026;2023-01-26T10:53:03;23.73;;;9.40;;
77417;SDS011;66490;51.484;0.026;2023-01-26T10:55:30;26.03;;;9.27;;
77417;SDS011;66490;51.484;0.026;2023-01-26T10:57:57;22.88;;;8.75;;
77417;SDS011;66490;51.484;0.026;2023-01-26T11:00:24;18.20;;;9.43;;
77417;SDS011;66490;51.484;0.026;2023-01-26T11:03:38;23.90;;;8.65;;
77417;SDS011;66490;51.484;0.026;2023-01-26T11:05:42;18.77;;;8.50;;
77417;SDS011;66490;51.484;0.026;2023-01-26T11:10:58;15.50;;;8.07;;
77417;SDS011;66490;51.484;0.026;2023-01-26T11:13:24;19.48;;;8.63;;
77417;SDS011;66490;51.484;0.026;2023-01-26T11:15:59;17.20;;;8.50;;
77417;SDS011;66490;51.484;0.026;2023-01-26T11:18:37;20.13;;;7.95;;
77417;SDS011;66490;51.484;0.026;2023-01-26T11:21:39;15.77;;;7.90;;
77417;SDS011;66490;51.484;0.026;2023-01-26T11:27:05;19.23;;;7.27;;
77417;SDS011;66490;51.484;0.026;2023-01-26T11:35:15;14.25;;;6.03;;
77417;SDS011;66490;51.484;0.026;2023-01-26T11:41:08;15.73;;;5.33;;
77417;SDS011;66490;51.484;0.026;2023-01-26T12:00:56;18.77;;;6.55;;
77417;SDS011;66490;51.484;0.026;2023-01-26T12:06:05;19.90;;;6.45;;
77417;SDS011;66490;51.484;0.026;2023-01-26T12:08:34;21.60;;;7.17;;
77417;SDS011;66490;51.484;0.026;2023-01-26T12:14:33;15.48;;;5.15;;
77417;SDS011;66490;51.484;0.026;2023-01-26T12:22:14;22.03;;;5.17;;
77417;SDS011;66490;51.484;0.026;2023-01-26T12:25:21;19.17;;;4.18;;
77417;SDS011;66490;51.484;0.026;2023-01-26T12:33:21;16.52;;;4.60;;
77417;SDS011;66490;51.484;0.026;2023-01-26T12:44:15;16.65;;;4.05;;
77417;SDS011;66490;51.484;0.026;2023-01-26T12:49:31;13.10;;;3.13;;
77417;SDS011;66490;51.484;0.026;2023-01-26T12:52:10;11.75;;;2.70;;
77417;SDS011;66490;51.484;0.026;2023-01-26T12:54:56;11.67;;;2.43;;
77417;SDS011;66490;51.484;0.026;2023-01-26T12:57:30;16.90;;;3.75;;
77417;SDS011;66490;51.484;0.026;2023-01-26T13:00:04;18.13;;;3.25;;
77417;SDS011;66490;51.484;0.026;2023-01-26T13:02:43;14.32;;;2.78;;
77417;SDS011;66490;51.484;0.026;2023-01-26T13:05:22;12.10;;;2.75;;
77417;SDS011;66490;51.484;0.026;2023-01-26T13:07:49;17.20;;;2.77;;
77417;SDS011;66490;51.484;0.026;2023-01-26T13:13:00;17.77;;;2.72;;
77417;SDS011;66490;51.484;0.026;2023-01-26T13:15:45;14.48;;;2.85;;
77417;SDS011;66490;51.484;0.026;2023-01-26T13:18:15;18.02;;;3.38;;
77417;SDS011;66490;51.484;0.026;2023-01-26T13:26:12;15.32;;;2.47;;
77417;SDS011;66490;51.484;0.026;2023-01-26T13:28:41;19.40;;;3.22;;
77417;SDS011;66490;51.484;0.026;2023-01-26T13:31:08;18.08;;;2.78;;
77417;SDS011;66490;51.484;0.026;2023-01-26T13:33:35;25.70;;;3.30;;
77417;SDS011;66490;51.484;0.026;2023-01-26T13:36:02;20.67;;;3.75;;
77417;SDS011;66490;51.484;0.026;2023-01-26T13:38:46;15.32;;;3.40;;
77417;SDS011;66490;51.484;0.026;2023-01-26T13:41:19;14.90;;;3.67;;
77417;SDS011;66490;51.484;0.026;2023-01-26T13:43:48;8.20;;;2.00;;
77417;SDS011;66490;51.484;0.026;2023-01-26T13:46:20;28.40;;;3.97;;
77417;SDS011;66490;51.484;0.026;2023-01-26T13:48:51;13.90;;;2.53;;
77417;SDS011;66490;51.484;0.026;2023-01-26T13:53:47;17.93;;;2.97;;
77417;SDS011;66490;51.484;0.026;2023-01-26T13:56:59;10.75;;;2.50;;
77417;SDS011;66490;51.484;0.026;2023-01-26T13:59:09;14.80;;;2.60;;
77417;SDS011;66490;51.484;0.026;2023-01-26T14:04:30;10.95;;;2.70;;
77417;SDS011;66490;51.484;0.026;2023-01-26T14:09:54;15.10;;;3.50;;
77417;SDS011;66490;51.484;0.026;2023-01-26T14:13:01;16.63;;;3.60;;
77417;SDS011;66490;51.484;0.026;2023-01-26T14:16:01;16.55;;;3.80;;
77417;SDS011;66490;51.484;0.026;2023-01-26T14:18:28;18.67;;;3.70;;
77417;SDS011;66490;51.484;0.026;2023-01-26T14:21:04;19.00;;;3.13;;
77417;SDS011;66490;51.484;0.026;2023-01-26T14:23:42;15.82;;;3.22;;
77417;SDS011;66490;51.484;0.026;2023-01-26T14:26:18;20.30;;;4.03;;
77417;SDS011;66490;51.484;0.026;2023-01-26T14:28:46;21.25;;;3.58;;
77417;SDS011;66490;51.484;0.026;2023-01-26T14:31:19;19.10;;;2.95;;
77417;SDS011;66490;51.484;0.026;2023-01-26T14:33:45;15.52;;;3.35;;
77417;SDS011;66490;51.484;0.026;2023-01-26T14:36:15;13.80;;;3.50;;
77417;SDS011;66490;51.484;0.026;2023-01-26T14:38:44;19.73;;;2.97;;
77417;SDS011;66490;51.484;0.026;2023-01-26T14:41:16;13.18;;;2.38;;
77417;SDS011;66490;51.484;0.026;2023-01-26T14:43:42;11.43;;;2.85;;
77417;SDS011;66490;51.484;0.026;2023-01-26T14:46:09;10.88;;;2.92;;
77417;SDS011;66490;51.484;0.026;2023-01-26T14:48:46;8.90;;;1.67;;
77417;SDS011;66490;51.484;0.026;2023-01-26T14:51:18;9.60;;;2.65;;
77417;SDS011;66490;51.484;0.026;2023-01-26T14:53:51;12.85;;;2.70;;
77417;SDS011;66490;51.484;0.026;2023-01-26T14:58:59;14.75;;;2.70;;
77417;SDS011;66490;51.484;0.026;2023-01-26T15:01:26;15.97;;;2.87;;
77417;SDS011;66490;51.484;0.026;2023-01-26T15:03:57;20.58;;;3.05;;
77417;SDS011;66490;51.484;0.026;2023-01-26T15:06:25;13.63;;;2.35;;
77417;SDS011;66490;51.484;0.026;2023-01-26T15:09:03;11.20;;;2.47;;
77417;SDS011;66490;51.484;0.026;2023-01-26T15:11:41;14.65;;;3.22;;
77417;SDS011;66490;51.484;0.026;2023-01-26T15:20:50;19.45;;;3.75;;
77417;SDS011;66490;51.484;0.026;2023-01-26T15:22:50;13.65;;;2.63;;
77417;SDS011;66490;51.484;0.026;2023-01-26T15:25:17;11.07;;;2.75;;
77417;SDS011;66490;51.484;0.026;2023-01-26T15:27:57;17.57;;;3.10;;
77417;SDS011;66490;51.484;0.026;2023-01-26T15:30:26;12.85;;;3.05;;
77417;SDS011;66490;51.484;0.026;2023-01-26T15:33:03;13.98;;;2.38;;
77417;SDS011;66490;51.484;0.026;2023-01-26T15:35:32;17.50;;;2.37;;
77417;SDS011;66490;51.484;0.026;2023-01-26T15:38:09;17.92;;;3.15;;
77417;SDS011;66490;51.484;0.026;2023-01-26T15:40:36;12.85;;;2.22;;
77417;SDS011;66490;51.484;0.026;2023-01-26T15:45:34;12.87;;;2.43;;
77417;SDS011;66490;51.484;0.026;2023-01-26T15:48:00;18.65;;;2.90;;
77417;SDS011;66490;51.484;0.026;2023-01-26T15:50:26;14.00;;;2.47;;
77417;SDS011;66490;51.484;0.026;2023-01-26T15:52:51;12.67;;;2.50;;
77417;SDS011;66490;51.484;0.026;2023-01-26T15:55:20;13.77;;;2.58;;
77417;SDS011;66490;51.484;0.026;2023-01-26T15:57:53;16.73;;;2.30;;
77417;SDS011;66490;51.484;0.026;2023-01-26T16:00:18;16.35;;;1.83;;
77417;SDS011;66490;51.484;0.026;2023-01-26T16:02:44;18.30;;;3.27;;
77417;SDS011;66490;51.484;0.026;2023-01-26T16:05:15;10.30;;;2.45;;
77417;SDS011;66490;51.484;0.026;2023-01-26T16:07:46;14.15;;;1.73;;
77417;SDS011;66490;51.484;0.026;2023-01-26T16:10:14;15.20;;;2.70;;
77417;SDS011;66490;51.484;0.026;2023-01-26T16:12:40;22.73;;;3.17;;
77417;SDS011;66490;51.484;0.026;2023-01-26T16:15:19;14.23;;;2.50;;
77417;SDS011;66490;51.484;0.026;2023-01-26T16:17:50;19.27;;;2.88;;
77417;SDS011;66490;51.484;0.026;2023-01-26T16:20:16;12.85;;;2.83;;
77417;SDS011;66490;51.484;0.026;2023-01-26T16:22:42;17.90;;;2.80;;
77417;SDS011;66490;51.484;0.026;2023-01-26T16:25:25;17.77;;;3.03;;
77417;SDS011;66490;51.484;0.026;2023-01-26T16:27:52;16.30;;;3.22;;
77417;SDS011;66490;51.484;0.026;2023-01-26T16:30:19;13.90;;;2.50;;
77417;SDS011;66490;51.484;0.026;2023-01-26T16:32:45;16.60;;;3.17;;
77417;SDS011;66490;51.484;0.026;2023-01-26T16:35:12;10.83;;;3.20;;
77417;SDS011;66490;51.484;0.026;2023-01-26T16:37:39;18.33;;;2.63;;
77417;SDS011;66490;51.484;0.026;2023-01-26T16:40:09;10.40;;;2.35;;
77417;SDS011;66490;51.484;0.026;2023-01-26T16:42:38;8.73;;;2.60;;
77417;SDS011;66490;51.484;0.026;2023-01-26T16:45:06;13.95;;;2.83;;